sensor_id;sensor_type;location;lat;lon;timestamp;pressure;altitude;pressure_sealevel;temperature;humidity
12209;BME280;6167;43.080;25.634;2022-08-23T00:02:17;98915.81;;;23.12;100.00
12209;BME280;6167;43.080;25.634;2022-08-23T00:04:47;98915.94;;;22.68;100.00
12209;BME280;6167;43.080;25.634;2022-08-23T00:07:17;98896.84;;;22.79;100.00
12209;BME280;6167;43.080;25.634;2022-08-23T00:09:44;98906.22;;;22.75;100.00
12209;BME280;6167;43.080;25.634;2022-08-23T00:12:14;98893.91;;;22.73;100.00
12209;BME280;6167;43.080;25.634;2022-08-23T00:14:47;98901.38;;;22.79;100.00
12209;BME280;6167;43.080;25.634;2022-08-23T00:17:16;98904.94;;;22.87;100.00
12209;BME280;6167;43.080;25.634;2022-08-23T00:19:45;98902.13;;;22.97;100.00
12209;BME280;6167;43.080;25.634;2022-08-23T00:22:13;98896.72;;;22.97;100.00
12209;BME280;6167;43.080;25.634;2022-08-23T00:24:43;98893.22;;;23.05;100.00
12209;BME280;6167;43.080;25.634;2022-08-23T00:27:11;98911.63;;;23.17;100.00
12209;BME280;6167;43.080;25.634;2022-08-23T00:29:44;98894.06;;;23.13;100.00
12209;BME280;6167;43.080;25.634;2022-08-23T00:32:14;98910.97;;;23.23;100.00
12209;BME280;6167;43.080;25.634;2022-08-23T00:34:42;98900.59;;;22.94;100.00
12209;BME280;6167;43.080;25.634;2022-08-23T00:37:10;98908.16;;;22.91;100.00
12209;BME280;6167;43.080;25.634;2022-08-23T00:39:37;98906.97;;;22.93;100.00
12209;BME280;6167;43.080;25.634;2022-08-23T00:42:12;98904.75;;;22.81;100.00
12209;BME280;6167;43.080;25.634;2022-08-23T00:44:55;98885.91;;;22.81;100.00
12209;BME280;6167;43.080;25.634;2022-08-23T00:47:40;98893.03;;;22.64;100.00
12209;BME280;6167;43.080;25.634;2022-08-23T00:50:19;98906.63;;;22.54;100.00
12209;BME280;6167;43.080;25.634;2022-08-23T00:52:54;98907.31;;;22.56;100.00
12209;BME280;6167;43.080;25.634;2022-08-23T00:55:26;98874.91;;;22.40;100.00
12209;BME280;6167;43.080;25.634;2022-08-23T00:57:56;98905.78;;;22.54;100.00
12209;BME280;6167;43.080;25.634;2022-08-23T01:00:24;98906.44;;;22.22;100.00
12209;BME280;6167;43.080;25.634;2022-08-23T01:03:00;98905.16;;;22.34;100.00
12209;BME280;6167;43.080;25.634;2022-08-23T01:05:32;98902.19;;;22.45;100.00
12209;BME280;6167;43.080;25.634;2022-08-23T01:08:03;98872.00;;;22.08;100.00
12209;BME280;6167;43.080;25.634;2022-08-23T01:10:35;98904.53;;;21.97;100.00
12209;BME280;6167;43.080;25.634;2022-08-23T01:19:50;98916.19;;;22.49;100.00
12209;BME280;6167;43.080;25.634;2022-08-23T01:22:23;98914.91;;;22.61;100.00
12209;BME280;6167;43.080;25.634;2022-08-23T01:24:55;98917.78;;;22.68;100.00
12209;BME280;6167;43.080;25.634;2022-08-23T01:27:23;98915.53;;;22.55;100.00
12209;BME280;6167;43.080;25.634;2022-08-23T01:29:50;98906.41;;;22.48;100.00
12209;BME280;6167;43.080;25.634;2022-08-23T01:32:17;98902.47;;;22.34;100.00
12209;BME280;6167;43.080;25.634;2022-08-23T01:34:44;98907.53;;;22.37;100.00
12209;BME280;6167;43.080;25.634;2022-08-23T01:37:12;98914.94;;;22.35;100.00
12209;BME280;6167;43.080;25.634;2022-08-23T01:39:39;98920.88;;;22.47;100.00
12209;BME280;6167;43.080;25.634;2022-08-23T01:42:07;98916.88;;;22.25;100.00
12209;BME280;6167;43.080;25.634;2022-08-23T01:44:35;98931.59;;;21.95;100.00
12209;BME280;6167;43.080;25.634;2022-08-23T01:47:03;98921.53;;;21.97;100.00
12209;BME280;6167;43.080;25.634;2022-08-23T01:49:32;98944.59;;;22.17;100.00
12209;BME280;6167;43.080;25.634;2022-08-23T01:51:59;98944.41;;;22.37;100.00
12209;BME280;6167;43.080;25.634;2022-08-23T01:54:27;98934.16;;;22.40;100.00
12209;BME280;6167;43.080;25.634;2022-08-23T01:56:54;98935.53;;;22.44;100.00
12209;BME280;6167;43.080;25.634;2022-08-23T01:59:23;98941.25;;;22.49;100.00
12209;BME280;6167;43.080;25.634;2022-08-23T02:01:51;98931.25;;;22.34;100.00
12209;BME280;6167;43.080;25.634;2022-08-23T02:04:18;98953.47;;;22.61;100.00
12209;BME280;6167;43.080;25.634;2022-08-23T02:06:46;98961.41;;;22.37;100.00
12209;BME280;6167;43.080;25.634;2022-08-23T02:09:30;98960.25;;;22.40;100.00
12209;BME280;6167;43.080;25.634;2022-08-23T02:11:57;98951.34;;;22.47;100.00
12209;BME280;6167;43.080;25.634;2022-08-23T02:14:26;98951.47;;;22.38;100.00
12209;BME280;6167;43.080;25.634;2022-08-23T02:16:54;98958.06;;;22.00;100.00
12209;BME280;6167;43.080;25.634;2022-08-23T02:21:51;98954.94;;;22.30;100.00
12209;BME280;6167;43.080;25.634;2022-08-23T02:24:21;98957.06;;;22.18;100.00
12209;BME280;6167;43.080;25.634;2022-08-23T02:26:51;98965.28;;;21.99;100.00
12209;BME280;6167;43.080;25.634;2022-08-23T02:29:22;98949.28;;;21.62;100.00
12209;BME280;6167;43.080;25.634;2022-08-23T02:31:51;98964.53;;;21.53;100.00
12209;BME280;6167;43.080;25.634;2022-08-23T02:34:18;98961.28;;;21.68;100.00
12209;BME280;6167;43.080;25.634;2022-08-23T02:36:46;98960.06;;;21.98;100.00
12209;BME280;6167;43.080;25.634;2022-08-23T02:39:16;98971.38;;;22.19;100.00
12209;BME280;6167;43.080;25.634;2022-08-23T02:41:57;98961.53;;;22.10;100.00
12209;BME280;6167;43.080;25.634;2022-08-23T02:44:25;98970.56;;;22.26;100.00
12209;BME280;6167;43.080;25.634;2022-08-23T02:46:54;98946.69;;;22.06;100.00
12209;BME280;6167;43.080;25.634;2022-08-23T02:49:21;98970.41;;;22.28;100.00
12209;BME280;6167;43.080;25.634;2022-08-23T02:51:48;98975.78;;;22.28;100.00
12209;BME280;6167;43.080;25.634;2022-08-23T02:54:30;98965.25;;;22.35;100.00
12209;BME280;6167;43.080;25.634;2022-08-23T02:56:58;98977.47;;;22.29;100.00
12209;BME280;6167;43.080;25.634;2022-08-23T02:59:25;98940.75;;;21.84;100.00
12209;BME280;6167;43.080;25.634;2022-08-23T03:05:08;98935.84;;;22.15;100.00
12209;BME280;6167;43.080;25.634;2022-08-23T03:07:35;98947.03;;;22.28;100.00
12209;BME280;6167;43.080;25.634;2022-08-23T03:10:13;98950.50;;;22.47;100.00
12209;BME280;6167;43.080;25.634;2022-08-23T03:12:41;98975.72;;;22.63;100.00
12209;BME280;6167;43.080;25.634;2022-08-23T03:15:45;98983.28;;;22.68;100.00
12209;BME280;6167;43.080;25.634;2022-08-23T03:18:12;98992.53;;;22.66;100.00
12209;BME280;6167;43.080;25.634;2022-08-23T03:20:41;98998.75;;;22.66;100.00
12209;BME280;6167;43.080;25.634;2022-08-23T03:23:08;98984.78;;;22.62;100.00
12209;BME280;6167;43.080;25.634;2022-08-23T03:25:36;99004.66;;;22.61;100.00
12209;BME280;6167;43.080;25.634;2022-08-23T03:28:04;99016.59;;;22.59;100.00
12209;BME280;6167;43.080;25.634;2022-08-23T03:30:33;99018.59;;;22.57;100.00
12209;BME280;6167;43.080;25.634;2022-08-23T03:33:01;99017.63;;;22.66;100.00
12209;BME280;6167;43.080;25.634;2022-08-23T03:35:28;99024.25;;;22.72;100.00
12209;BME280;6167;43.080;25.634;2022-08-23T03:37:56;99001.66;;;22.65;100.00
12209;BME280;6167;43.080;25.634;2022-08-23T03:40:23;99025.03;;;22.82;100.00
12209;BME280;6167;43.080;25.634;2022-08-23T03:42:51;99024.88;;;22.91;100.00
12209;BME280;6167;43.080;25.634;2022-08-23T03:45:18;99015.47;;;22.70;100.00
12209;BME280;6167;43.080;25.634;2022-08-23T03:47:45;99022.94;;;22.32;100.00
12209;BME280;6167;43.080;25.634;2022-08-23T03:50:12;98995.47;;;22.28;100.00
12209;BME280;6167;43.080;25.634;2022-08-23T03:52:39;99005.94;;;22.32;100.00
12209;BME280;6167;43.080;25.634;2022-08-23T03:55:09;99024.72;;;22.41;100.00
12209;BME280;6167;43.080;25.634;2022-08-23T03:57:36;99038.38;;;22.48;100.00
12209;BME280;6167;43.080;25.634;2022-08-23T04:00:06;99014.19;;;22.30;100.00
12209;BME280;6167;43.080;25.634;2022-08-23T04:02:43;99051.50;;;22.43;100.00
12209;BME280;6167;43.080;25.634;2022-08-23T04:05:11;99034.25;;;22.36;100.00
12209;BME280;6167;43.080;25.634;2022-08-23T04:07:38;99040.91;;;22.23;100.00
12209;BME280;6167;43.080;25.634;2022-08-23T04:10:11;99041.97;;;22.13;100.00
12209;BME280;6167;43.080;25.634;2022-08-23T04:12:40;99040.91;;;22.23;100.00
12209;BME280;6167;43.080;25.634;2022-08-23T04:15:12;99047.78;;;22.26;100.00
12209;BME280;6167;43.080;25.634;2022-08-23T04:17:39;99032.72;;;22.33;100.00
12209;BME280;6167;43.080;25.634;2022-08-23T04:20:07;99033.22;;;22.54;100.00
12209;BME280;6167;43.080;25.634;2022-08-23T04:22:35;99033.31;;;22.71;100.00
12209;BME280;6167;43.080;25.634;2022-08-23T04:25:03;99040.47;;;23.06;100.00
12209;BME280;6167;43.080;25.634;2022-08-23T04:27:32;99029.63;;;23.31;100.00
12209;BME280;6167;43.080;25.634;2022-08-23T04:30:00;99033.44;;;23.55;100.00
12209;BME280;6167;43.080;25.634;2022-08-23T04:32:28;99040.44;;;23.82;100.00
12209;BME280;6167;43.080;25.634;2022-08-23T04:34:55;99030.50;;;23.82;100.00
12209;BME280;6167;43.080;25.634;2022-08-23T04:37:22;99023.75;;;23.94;100.00
12209;BME280;6167;43.080;25.634;2022-08-23T04:39:50;99024.78;;;24.18;100.00
12209;BME280;6167;43.080;25.634;2022-08-23T04:47:40;99024.59;;;24.76;100.00
12209;BME280;6167;43.080;25.634;2022-08-23T04:50:09;99020.53;;;24.80;100.00
12209;BME280;6167;43.080;25.634;2022-08-23T04:52:41;99015.91;;;25.13;100.00
12209;BME280;6167;43.080;25.634;2022-08-23T04:55:08;99017.41;;;25.63;100.00
12209;BME280;6167;43.080;25.634;2022-08-23T04:57:36;99016.09;;;25.82;100.00
12209;BME280;6167;43.080;25.634;2022-08-23T05:00:06;99004.56;;;26.11;100.00
12209;BME280;6167;43.080;25.634;2022-08-23T05:02:34;99002.94;;;26.62;100.00
12209;BME280;6167;43.080;25.634;2022-08-23T05:05:04;99003.63;;;26.93;100.00
12209;BME280;6167;43.080;25.634;2022-08-23T05:07:32;99007.47;;;27.14;100.00
12209;BME280;6167;43.080;25.634;2022-08-23T05:09:59;98988.16;;;27.53;100.00
12209;BME280;6167;43.080;25.634;2022-08-23T05:12:45;98990.84;;;27.89;100.00
12209;BME280;6167;43.080;25.634;2022-08-23T05:15:13;98997.97;;;28.26;100.00
12209;BME280;6167;43.080;25.634;2022-08-23T05:17:40;99004.09;;;28.62;100.00
12209;BME280;6167;43.080;25.634;2022-08-23T05:20:10;98997.03;;;28.96;100.00
12209;BME280;6167;43.080;25.634;2022-08-23T05:22:39;99016.16;;;29.44;100.00
12209;BME280;6167;43.080;25.634;2022-08-23T05:25:07;98995.72;;;29.74;100.00
12209;BME280;6167;43.080;25.634;2022-08-23T05:27:35;98992.88;;;30.02;100.00
12209;BME280;6167;43.080;25.634;2022-08-23T05:30:04;98985.38;;;30.30;100.00
12209;BME280;6167;43.080;25.634;2022-08-23T05:32:31;99017.66;;;30.80;100.00
12209;BME280;6167;43.080;25.634;2022-08-23T05:34:59;99010.34;;;30.47;100.00
12209;BME280;6167;43.080;25.634;2022-08-23T05:37:27;99022.09;;;30.54;100.00
12209;BME280;6167;43.080;25.634;2022-08-23T05:39:54;99013.09;;;30.67;100.00
12209;BME280;6167;43.080;25.634;2022-08-23T05:42:22;99014.06;;;30.99;100.00
12209;BME280;6167;43.080;25.634;2022-08-23T05:44:49;98991.25;;;30.73;100.00
12209;BME280;6167;43.080;25.634;2022-08-23T05:47:17;99001.31;;;30.80;100.00
12209;BME280;6167;43.080;25.634;2022-08-23T05:49:44;99021.63;;;31.17;100.00
12209;BME280;6167;43.080;25.634;2022-08-23T05:52:12;98992.25;;;31.12;100.00
12209;BME280;6167;43.080;25.634;2022-08-23T05:54:56;99018.28;;;30.35;100.00
12209;BME280;6167;43.080;25.634;2022-08-23T05:57:23;98988.31;;;30.42;100.00
12209;BME280;6167;43.080;25.634;2022-08-23T05:59:51;99007.97;;;31.10;100.00
12209;BME280;6167;43.080;25.634;2022-08-23T06:02:18;98999.59;;;31.63;100.00
12209;BME280;6167;43.080;25.634;2022-08-23T06:04:45;99005.97;;;31.95;100.00
12209;BME280;6167;43.080;25.634;2022-08-23T06:07:12;99024.38;;;32.13;97.86
12209;BME280;6167;43.080;25.634;2022-08-23T06:09:41;99027.91;;;32.20;100.00
12209;BME280;6167;43.080;25.634;2022-08-23T06:12:09;99027.09;;;32.13;100.00
12209;BME280;6167;43.080;25.634;2022-08-23T06:14:37;99034.00;;;32.22;98.20
12209;BME280;6167;43.080;25.634;2022-08-23T06:17:04;99023.59;;;32.37;96.49
12209;BME280;6167;43.080;25.634;2022-08-23T06:19:32;99030.00;;;32.49;96.11
12209;BME280;6167;43.080;25.634;2022-08-23T06:21:59;99020.25;;;32.35;97.09
12209;BME280;6167;43.080;25.634;2022-08-23T06:24:27;99039.34;;;32.41;96.94
12209;BME280;6167;43.080;25.634;2022-08-23T06:26:54;99039.72;;;32.14;98.76
12209;BME280;6167;43.080;25.634;2022-08-23T06:29:23;99049.59;;;32.21;99.96
12209;BME280;6167;43.080;25.634;2022-08-23T06:31:51;99048.66;;;32.34;97.37
12209;BME280;6167;43.080;25.634;2022-08-23T06:34:20;99054.53;;;32.62;95.97
12209;BME280;6167;43.080;25.634;2022-08-23T06:36:48;99035.69;;;32.48;100.00
12209;BME280;6167;43.080;25.634;2022-08-23T06:39:17;99040.78;;;32.06;100.00
12209;BME280;6167;43.080;25.634;2022-08-23T06:41:45;99051.50;;;31.76;100.00
12209;BME280;6167;43.080;25.634;2022-08-23T06:44:14;99051.03;;;32.17;100.00
12209;BME280;6167;43.080;25.634;2022-08-23T06:46:43;99029.78;;;32.19;97.93
12209;BME280;6167;43.080;25.634;2022-08-23T06:49:11;99030.75;;;32.63;95.27
12209;BME280;6167;43.080;25.634;2022-08-23T06:51:40;99057.09;;;33.07;86.30
12209;BME280;6167;43.080;25.634;2022-08-23T06:54:09;99064.59;;;32.93;91.19
12209;BME280;6167;43.080;25.634;2022-08-23T06:56:38;99057.31;;;33.05;89.23
12209;BME280;6167;43.080;25.634;2022-08-23T06:59:06;99050.25;;;32.98;85.46
12209;BME280;6167;43.080;25.634;2022-08-23T07:01:35;99053.16;;;33.21;88.38
12209;BME280;6167;43.080;25.634;2022-08-23T07:04:06;99053.03;;;33.53;86.80
12209;BME280;6167;43.080;25.634;2022-08-23T07:06:34;99051.56;;;33.68;86.21
12209;BME280;6167;43.080;25.634;2022-08-23T07:09:02;99054.00;;;33.76;86.59
12209;BME280;6167;43.080;25.634;2022-08-23T07:11:30;99054.50;;;34.03;79.35
12209;BME280;6167;43.080;25.634;2022-08-23T07:13:57;99045.31;;;34.28;75.03
12209;BME280;6167;43.080;25.634;2022-08-23T07:16:31;99049.56;;;34.77;70.92
12209;BME280;6167;43.080;25.634;2022-08-23T07:18:58;99045.69;;;35.08;67.17
12209;BME280;6167;43.080;25.634;2022-08-23T07:21:27;99041.97;;;35.02;69.64
12209;BME280;6167;43.080;25.634;2022-08-23T07:23:54;99048.47;;;34.43;72.51
12209;BME280;6167;43.080;25.634;2022-08-23T07:26:22;99043.94;;;34.07;74.06
12209;BME280;6167;43.080;25.634;2022-08-23T07:28:50;99048.56;;;34.36;78.46
12209;BME280;6167;43.080;25.634;2022-08-23T07:31:21;99042.69;;;34.86;69.53
12209;BME280;6167;43.080;25.634;2022-08-23T07:33:48;99050.09;;;34.86;70.18
12209;BME280;6167;43.080;25.634;2022-08-23T07:36:17;99053.94;;;35.08;68.78
12209;BME280;6167;43.080;25.634;2022-08-23T07:38:46;99043.50;;;35.22;69.57
12209;BME280;6167;43.080;25.634;2022-08-23T07:41:13;99053.47;;;34.16;73.46
12209;BME280;6167;43.080;25.634;2022-08-23T07:43:42;99047.22;;;34.80;69.06
12209;BME280;6167;43.080;25.634;2022-08-23T07:46:10;99047.47;;;35.37;64.24
12209;BME280;6167;43.080;25.634;2022-08-23T07:48:38;99044.81;;;35.42;63.10
12209;BME280;6167;43.080;25.634;2022-08-23T07:51:09;99044.88;;;36.11;59.07
12209;BME280;6167;43.080;25.634;2022-08-23T07:53:37;99058.22;;;35.51;63.67
12209;BME280;6167;43.080;25.634;2022-08-23T07:56:07;99056.00;;;34.59;68.63
12209;BME280;6167;43.080;25.634;2022-08-23T07:58:35;99045.94;;;34.41;73.34
12209;BME280;6167;43.080;25.634;2022-08-23T08:01:12;99054.41;;;33.43;79.25
12209;BME280;6167;43.080;25.634;2022-08-23T08:03:41;99057.44;;;33.54;78.72
12209;BME280;6167;43.080;25.634;2022-08-23T08:06:09;99052.09;;;34.25;78.12
12209;BME280;6167;43.080;25.634;2022-08-23T08:08:38;99044.25;;;34.82;70.91
12209;BME280;6167;43.080;25.634;2022-08-23T08:11:08;99048.06;;;34.81;70.28
12209;BME280;6167;43.080;25.634;2022-08-23T08:13:36;99037.44;;;35.08;65.08
12209;BME280;6167;43.080;25.634;2022-08-23T08:16:04;99037.22;;;35.73;61.75
12209;BME280;6167;43.080;25.634;2022-08-23T08:18:31;99056.59;;;36.06;57.87
12209;BME280;6167;43.080;25.634;2022-08-23T08:20:59;99053.47;;;36.14;59.09
12209;BME280;6167;43.080;25.634;2022-08-23T08:23:26;99059.16;;;35.96;56.28
12209;BME280;6167;43.080;25.634;2022-08-23T08:26:04;99052.88;;;35.72;56.19
12209;BME280;6167;43.080;25.634;2022-08-23T08:28:33;99057.84;;;35.35;60.32
12209;BME280;6167;43.080;25.634;2022-08-23T08:31:01;99052.59;;;35.45;60.86
12209;BME280;6167;43.080;25.634;2022-08-23T08:33:29;99046.19;;;36.08;55.59
12209;BME280;6167;43.080;25.634;2022-08-23T08:35:56;99043.13;;;36.22;56.24
12209;BME280;6167;43.080;25.634;2022-08-23T08:38:26;99034.00;;;36.04;54.14
12209;BME280;6167;43.080;25.634;2022-08-23T08:41:00;99053.19;;;35.24;61.48
12209;BME280;6167;43.080;25.634;2022-08-23T08:43:44;99053.34;;;35.29;58.93
12209;BME280;6167;43.080;25.634;2022-08-23T08:46:22;99053.56;;;35.04;61.56
12209;BME280;6167;43.080;25.634;2022-08-23T08:48:53;99055.84;;;35.31;59.56
12209;BME280;6167;43.080;25.634;2022-08-23T08:51:33;99052.28;;;35.82;57.02
12209;BME280;6167;43.080;25.634;2022-08-23T08:54:05;99052.75;;;35.79;56.97
12209;BME280;6167;43.080;25.634;2022-08-23T08:56:39;99046.09;;;35.63;58.41
12209;BME280;6167;43.080;25.634;2022-08-23T08:59:11;99049.03;;;36.42;53.16
12209;BME280;6167;43.080;25.634;2022-08-23T09:01:41;99039.84;;;37.03;48.70
12209;BME280;6167;43.080;25.634;2022-08-23T09:04:09;99044.13;;;35.87;54.17
12209;BME280;6167;43.080;25.634;2022-08-23T09:06:46;99045.38;;;36.53;55.19
12209;BME280;6167;43.080;25.634;2022-08-23T09:09:26;99037.09;;;36.08;53.57
12209;BME280;6167;43.080;25.634;2022-08-23T09:12:04;99031.75;;;35.61;54.13
12209;BME280;6167;43.080;25.634;2022-08-23T09:14:46;99021.25;;;36.27;52.90
12209;BME280;6167;43.080;25.634;2022-08-23T09:17:23;99029.53;;;36.94;51.98
12209;BME280;6167;43.080;25.634;2022-08-23T09:19:55;99016.94;;;37.58;46.96
12209;BME280;6167;43.080;25.634;2022-08-23T09:22:29;99017.19;;;37.57;47.67
12209;BME280;6167;43.080;25.634;2022-08-23T09:24:59;98991.56;;;37.56;48.30
12209;BME280;6167;43.080;25.634;2022-08-23T09:27:27;99017.00;;;37.41;48.33
12209;BME280;6167;43.080;25.634;2022-08-23T09:29:57;99010.34;;;36.48;47.82
12209;BME280;6167;43.080;25.634;2022-08-23T09:32:29;99008.69;;;34.87;54.73
12209;BME280;6167;43.080;25.634;2022-08-23T09:35:10;99009.53;;;33.74;64.70
12209;BME280;6167;43.080;25.634;2022-08-23T09:37:46;99013.75;;;34.07;61.81
12209;BME280;6167;43.080;25.634;2022-08-23T09:40:18;99019.28;;;33.70;69.08
12209;BME280;6167;43.080;25.634;2022-08-23T09:43:01;99014.50;;;33.47;74.44
12209;BME280;6167;43.080;25.634;2022-08-23T09:45:32;98996.72;;;33.20;79.81
12209;BME280;6167;43.080;25.634;2022-08-23T09:48:00;99020.91;;;33.78;80.57
12209;BME280;6167;43.080;25.634;2022-08-23T09:50:33;98978.19;;;33.70;76.88
12209;BME280;6167;43.080;25.634;2022-08-23T09:53:05;98988.09;;;34.43;69.77
12209;BME280;6167;43.080;25.634;2022-08-23T09:55:36;99005.53;;;34.49;64.11
12209;BME280;6167;43.080;25.634;2022-08-23T09:58:15;99018.88;;;34.45;66.03
12209;BME280;6167;43.080;25.634;2022-08-23T10:01:01;99014.28;;;34.80;58.77
12209;BME280;6167;43.080;25.634;2022-08-23T10:03:32;99020.59;;;35.16;57.97
12209;BME280;6167;43.080;25.634;2022-08-23T10:06:00;99020.00;;;35.02;58.68
12209;BME280;6167;43.080;25.634;2022-08-23T10:08:30;99012.41;;;35.56;57.47
12209;BME280;6167;43.080;25.634;2022-08-23T10:11:02;99003.72;;;36.16;52.87
12209;BME280;6167;43.080;25.634;2022-08-23T10:13:31;99003.00;;;36.71;49.51
12209;BME280;6167;43.080;25.634;2022-08-23T10:16:09;99001.97;;;35.98;50.72
12209;BME280;6167;43.080;25.634;2022-08-23T10:18:50;99007.72;;;35.28;51.93
12209;BME280;6167;43.080;25.634;2022-08-23T10:21:21;99008.56;;;35.29;52.09
12209;BME280;6167;43.080;25.634;2022-08-23T10:24:13;99001.91;;;35.53;52.13
12209;BME280;6167;43.080;25.634;2022-08-23T10:26:49;98999.13;;;35.65;48.31
12209;BME280;6167;43.080;25.634;2022-08-23T10:29:25;99000.56;;;35.56;50.00
12209;BME280;6167;43.080;25.634;2022-08-23T10:32:12;98984.63;;;35.41;48.25
12209;BME280;6167;43.080;25.634;2022-08-23T10:34:55;98987.91;;;35.95;48.51
12209;BME280;6167;43.080;25.634;2022-08-23T10:37:41;98986.34;;;35.59;49.85
12209;BME280;6167;43.080;25.634;2022-08-23T10:40:15;98982.41;;;35.95;48.71
12209;BME280;6167;43.080;25.634;2022-08-23T10:42:52;98993.34;;;35.78;47.43
12209;BME280;6167;43.080;25.634;2022-08-23T10:45:25;98999.44;;;35.80;46.97
12209;BME280;6167;43.080;25.634;2022-08-23T10:48:05;98994.91;;;36.47;46.18
12209;BME280;6167;43.080;25.634;2022-08-23T10:50:41;98995.75;;;36.31;46.46
12209;BME280;6167;43.080;25.634;2022-08-23T10:53:12;98993.59;;;36.05;47.76
12209;BME280;6167;43.080;25.634;2022-08-23T10:55:44;98998.41;;;36.26;45.95
12209;BME280;6167;43.080;25.634;2022-08-23T10:58:30;98998.06;;;36.39;46.97
12209;BME280;6167;43.080;25.634;2022-08-23T11:00:59;98983.28;;;36.62;45.65
12209;BME280;6167;43.080;25.634;2022-08-23T11:03:31;99000.75;;;36.85;44.59
12209;BME280;6167;43.080;25.634;2022-08-23T11:09:30;98986.06;;;36.45;44.91
12209;BME280;6167;43.080;25.634;2022-08-23T11:12:16;98974.75;;;36.75;43.01
12209;BME280;6167;43.080;25.634;2022-08-23T11:14:47;98968.50;;;36.18;44.10
12209;BME280;6167;43.080;25.634;2022-08-23T11:17:26;98973.94;;;36.13;43.68
12209;BME280;6167;43.080;25.634;2022-08-23T11:19:58;98967.56;;;36.74;43.46
12209;BME280;6167;43.080;25.634;2022-08-23T11:22:27;98961.28;;;36.62;43.88
12209;BME280;6167;43.080;25.634;2022-08-23T11:24:58;98964.69;;;36.86;44.79
12209;BME280;6167;43.080;25.634;2022-08-23T11:27:31;98959.13;;;36.47;44.97
12209;BME280;6167;43.080;25.634;2022-08-23T11:33:07;98971.34;;;35.38;48.79
12209;BME280;6167;43.080;25.634;2022-08-23T11:35:44;98971.59;;;35.36;46.68
12209;BME280;6167;43.080;25.634;2022-08-23T11:38:14;98962.56;;;35.12;47.67
12209;BME280;6167;43.080;25.634;2022-08-23T11:41:10;98961.91;;;35.45;50.18
12209;BME280;6167;43.080;25.634;2022-08-23T11:43:40;98948.81;;;35.64;47.14
12209;BME280;6167;43.080;25.634;2022-08-23T11:46:33;98948.00;;;35.92;47.69
12209;BME280;6167;43.080;25.634;2022-08-23T11:49:33;98938.97;;;35.97;47.11
12209;BME280;6167;43.080;25.634;2022-08-23T11:52:24;98920.66;;;35.86;46.22
12209;BME280;6167;43.080;25.634;2022-08-23T11:55:12;98916.97;;;35.97;45.52
12209;BME280;6167;43.080;25.634;2022-08-23T11:57:53;98904.56;;;37.00;43.63
12209;BME280;6167;43.080;25.634;2022-08-23T12:00:25;98906.63;;;37.31;43.54
12209;BME280;6167;43.080;25.634;2022-08-23T12:02:57;98907.63;;;37.20;43.40
12209;BME280;6167;43.080;25.634;2022-08-23T12:08:32;98905.72;;;35.98;43.90
12209;BME280;6167;43.080;25.634;2022-08-23T12:11:07;98904.47;;;35.61;43.69
12209;BME280;6167;43.080;25.634;2022-08-23T12:13:56;98900.72;;;35.10;44.57
12209;BME280;6167;43.080;25.634;2022-08-23T12:16:44;98889.34;;;35.18;45.15
12209;BME280;6167;43.080;25.634;2022-08-23T12:19:19;98906.72;;;34.95;45.36
12209;BME280;6167;43.080;25.634;2022-08-23T12:21:51;98900.72;;;34.98;45.20
12209;BME280;6167;43.080;25.634;2022-08-23T12:24:32;98897.41;;;34.96;45.43
12209;BME280;6167;43.080;25.634;2022-08-23T12:27:07;98898.88;;;34.87;45.39
12209;BME280;6167;43.080;25.634;2022-08-23T12:29:48;98901.38;;;34.65;46.34
12209;BME280;6167;43.080;25.634;2022-08-23T12:32:23;98901.00;;;34.85;44.96
12209;BME280;6167;43.080;25.634;2022-08-23T12:35:07;98928.47;;;34.50;44.65
12209;BME280;6167;43.080;25.634;2022-08-23T12:37:43;98971.03;;;34.53;46.56
12209;BME280;6167;43.080;25.634;2022-08-23T12:40:34;99004.78;;;33.52;52.12
12209;BME280;6167;43.080;25.634;2022-08-23T12:43:06;99053.59;;;30.70;100.00
12209;BME280;6167;43.080;25.634;2022-08-23T12:45:38;99063.03;;;27.47;100.00
12209;BME280;6167;43.080;25.634;2022-08-23T12:48:07;99066.41;;;26.30;100.00
12209;BME280;6167;43.080;25.634;2022-08-23T12:50:37;99110.88;;;25.26;100.00
12209;BME280;6167;43.080;25.634;2022-08-23T12:53:08;99127.66;;;23.82;100.00
12209;BME280;6167;43.080;25.634;2022-08-23T12:55:39;99158.53;;;23.28;100.00
12209;BME280;6167;43.080;25.634;2022-08-23T12:58:08;99117.81;;;23.05;100.00
12209;BME280;6167;43.080;25.634;2022-08-23T13:00:38;99167.50;;;23.03;100.00
12209;BME280;6167;43.080;25.634;2022-08-23T13:03:16;99101.47;;;22.81;100.00
12209;BME280;6167;43.080;25.634;2022-08-23T13:05:46;99075.25;;;22.29;100.00
12209;BME280;6167;43.080;25.634;2022-08-23T13:08:22;99124.41;;;21.86;100.00
12209;BME280;6167;43.080;25.634;2022-08-23T13:10:52;99142.69;;;21.18;100.00
12209;BME280;6167;43.080;25.634;2022-08-23T13:13:24;99123.53;;;21.41;100.00
12209;BME280;6167;43.080;25.634;2022-08-23T13:15:54;99125.81;;;21.63;100.00
12209;BME280;6167;43.080;25.634;2022-08-23T13:18:23;99138.81;;;22.40;100.00
12209;BME280;6167;43.080;25.634;2022-08-23T13:23:58;99153.72;;;23.06;100.00
12209;BME280;6167;43.080;25.634;2022-08-23T13:26:40;99149.63;;;23.27;100.00
12209;BME280;6167;43.080;25.634;2022-08-23T13:29:12;99144.47;;;22.90;100.00
12209;BME280;6167;43.080;25.634;2022-08-23T13:31:57;99156.53;;;22.78;100.00
12209;BME280;6167;43.080;25.634;2022-08-23T13:34:33;99128.97;;;22.84;100.00
12209;BME280;6167;43.080;25.634;2022-08-23T13:37:03;99149.75;;;22.56;100.00
12209;BME280;6167;43.080;25.634;2022-08-23T13:39:31;99167.59;;;22.57;100.00
12209;BME280;6167;43.080;25.634;2022-08-23T13:42:00;99157.38;;;22.43;100.00
12209;BME280;6167;43.080;25.634;2022-08-23T13:44:29;99136.72;;;22.52;100.00
12209;BME280;6167;43.080;25.634;2022-08-23T13:46:57;99116.88;;;22.17;100.00
12209;BME280;6167;43.080;25.634;2022-08-23T13:49:26;99096.03;;;22.37;100.00